Time;durP1;ratioP1;P1;durP2;ratioP2;P2;SDS_P1;SDS_P2;PMS_P1;PMS_P2;Temp;Humidity;BMP_temperature;BMP_pressure;BME280_temperature;BME280_humidity;BME280_pressure;Samples;Min_cycle;Max_cycle;Signal;HPM_P1;HPM_P2
2023/07/09 00:02:23;;;;;;;5.50;2.83;;;19.20;19.20;;;;;;4933221;29;20742;-78
2023/07/09 00:04:50;;;;;;;4.75;3.47;;;18.90;26.70;;;;;;4934677;29;20370;-78
2023/07/09 00:07:28;;;;;;;6.22;2.67;;;18.90;33.40;;;;;;4917296;29;20475;-79
2023/07/09 00:09:55;;;;;;;6.85;2.95;;;18.90;36.00;;;;;;4934836;29;20047;-78
2023/07/09 00:12:21;;;;;;;6.05;3.05;;;18.90;41.50;;;;;;4933264;29;20028;-78
2023/07/09 00:14:48;;;;;;;6.68;2.95;;;19.20;30.90;;;;;;4934507;29;20046;-78
2023/07/09 00:17:23;;;;;;;5.53;3.30;;;19.20;24.60;;;;;;4933032;29;20043;-79
2023/07/09 00:19:49;;;;;;;6.07;3.05;;;19.10;32.20;;;;;;4934312;29;20474;-79
2023/07/09 00:22:18;;;;;;;4.72;2.28;;;19.20;34.30;;;;;;4932419;29;20047;-79
2023/07/09 00:24:47;;;;;;;4.07;2.50;;;19.20;28.30;;;;;;4934579;29;20046;-79
2023/07/09 00:27:16;;;;;;;4.82;2.90;;;19.20;30.70;;;;;;4933461;29;20024;-79
2023/07/09 00:29:43;;;;;;;7.07;2.85;;;19.20;33.40;;;;;;4934241;29;20031;-79
2023/07/09 00:32:15;;;;;;;4.55;2.05;;;19.30;33.40;;;;;;4932600;29;20043;-78
2023/07/09 00:34:48;;;;;;;4.45;2.75;;;19.40;16.50;;;;;;4917207;29;20502;-78
2023/07/09 00:37:17;;;;;;;6.25;2.92;;;19.40;14.10;;;;;;4933445;29;20055;-78
2023/07/09 00:39:44;;;;;;;5.28;3.10;;;19.30;18.40;;;;;;4932320;29;20467;-79
2023/07/09 00:42:18;;;;;;;5.10;2.90;;;19.20;26.00;;;;;;4932451;29;20039;-80
2023/07/09 00:44:54;;;;;;;9.90;2.83;;;19.20;24.10;;;;;;4934372;29;20125;-79
2023/07/09 00:47:51;;;;;;;3.75;2.40;;;19.00;42.30;;;;;;4933800;29;20023;-79
2023/07/09 00:50:41;;;;;;;4.93;2.97;;;18.70;80.40;;;;;;4932778;29;20385;-79
2023/07/09 00:53:18;;;;;;;6.38;2.75;;;18.50;99.90;;;;;;4928919;29;20062;-80
2023/07/09 00:55:49;;;;;;;6.32;3.55;;;18.50;99.90;;;;;;4933239;29;20043;-79
2023/07/09 00:58:17;;;;;;;5.60;2.58;;;18.50;99.90;;;;;;4914962;29;20043;-78
2023/07/09 01:00:52;;;;;;;5.65;3.08;;;18.50;99.90;;;;;;4916522;29;20431;-78
2023/07/09 01:03:49;;;;;;;6.32;2.97;;;18.50;99.90;;;;;;4930900;29;20040;-79
2023/07/09 01:06:20;;;;;;;5.53;2.50;;;18.60;99.90;;;;;;4928343;29;20046;-79
2023/07/09 01:08:53;;;;;;;5.50;3.05;;;18.70;99.90;;;;;;4916001;29;20383;-79
2023/07/09 01:11:22;;;;;;;7.10;3.45;;;18.70;99.90;;;;;;4930718;29;20801;-80
2023/07/09 01:13:51;;;;;;;7.25;3.47;;;18.60;99.90;;;;;;4932933;29;20036;-80
2023/07/09 01:16:23;;;;;;;7.63;3.38;;;18.50;99.90;;;;;;4915287;29;20502;-80
2023/07/09 01:18:50;;;;;;;5.20;2.90;;;18.40;99.90;;;;;;4936315;29;20038;-79
2023/07/09 01:21:17;;;;;;;4.97;2.70;;;18.30;99.90;;;;;;4932835;29;20043;-79
2023/07/09 01:23:44;;;;;;;5.53;2.80;;;18.20;99.90;;;;;;4932660;29;20035;-79
2023/07/09 01:26:12;;;;;;;5.63;2.60;;;18.20;99.90;;;;;;4931945;29;20038;-79
2023/07/09 01:28:41;;;;;;;7.22;3.28;;;18.20;99.90;;;;;;4916862;29;20059;-79
2023/07/09 01:31:08;;;;;;;8.05;3.67;;;18.30;99.90;;;;;;4933499;29;20344;-81
2023/07/09 01:33:39;;;;;;;6.43;2.80;;;18.20;99.90;;;;;;4915705;29;20059;-80
2023/07/09 01:36:23;;;;;;;6.88;3.90;;;18.10;99.90;;;;;;4933941;29;20481;-80
2023/07/09 01:38:56;;;;;;;4.78;3.00;;;18.00;99.90;;;;;;4913988;29;20383;-79
2023/07/09 01:41:22;;;;;;;5.45;3.50;;;18.00;99.90;;;;;;4934372;29;20048;-79
2023/07/09 01:43:48;;;;;;;6.85;3.50;;;18.20;99.90;;;;;;4937542;29;20374;-79
2023/07/09 01:46:16;;;;;;;5.72;3.45;;;18.20;99.90;;;;;;4936159;29;20043;-79
2023/07/09 01:48:44;;;;;;;3.80;3.28;;;18.20;99.90;;;;;;4937541;29;20036;-78
2023/07/09 01:51:13;;;;;;;4.97;3.33;;;18.20;99.90;;;;;;4919904;29;20080;-80
2023/07/09 01:53:40;;;;;;;5.10;2.97;;;18.10;99.90;;;;;;4934599;29;20056;-78
2023/07/09 01:56:08;;;;;;;5.85;3.67;;;18.00;99.90;;;;;;4915075;29;20056;-80
2023/07/09 01:58:34;;;;;;;5.80;3.63;;;18.00;99.90;;;;;;4935150;29;20474;-79
2023/07/09 02:01:00;;;;;;;6.80;3.08;;;17.90;99.90;;;;;;4935207;29;20054;-79
2023/07/09 02:03:26;;;;;;;7.25;3.25;;;17.90;99.90;;;;;;4935320;29;20043;-80
2023/07/09 02:05:54;;;;;;;9.18;3.70;;;17.90;99.90;;;;;;4937261;29;20034;-78
2023/07/09 02:08:21;;;;;;;4.28;3.13;;;17.70;99.90;;;;;;4918489;29;20047;-79
2023/07/09 02:10:48;;;;;;;6.03;3.38;;;17.50;99.90;;;;;;4937513;29;20027;-79
2023/07/09 02:13:15;;;;;;;4.43;3.30;;;17.40;99.90;;;;;;4935140;29;20348;-79
2023/07/09 02:15:43;;;;;;;4.95;2.65;;;17.40;99.90;;;;;;4910969;29;20052;-79
2023/07/09 02:18:13;;;;;;;4.85;3.17;;;17.40;99.90;;;;;;4935313;29;20071;-80
2023/07/09 02:20:39;;;;;;;6.47;3.42;;;17.40;99.90;;;;;;4936993;29;20366;-79
2023/07/09 02:23:08;;;;;;;7.15;3.22;;;17.40;99.90;;;;;;4941355;29;20036;-77
2023/07/09 02:25:34;;;;;;;7.80;3.65;;;17.40;99.90;;;;;;4943804;29;20485;-78
2023/07/09 02:28:01;;;;;;;5.40;3.20;;;17.40;99.90;;;;;;4937230;29;20129;-78
2023/07/09 02:30:27;;;;;;;4.00;3.00;;;17.50;99.90;;;;;;4935664;29;20032;-78
2023/07/09 02:32:54;;;;;;;8.85;3.70;;;17.70;99.90;;;;;;4935221;29;20031;-78
2023/07/09 02:35:23;;;;;;;4.35;3.03;;;17.60;99.90;;;;;;4936127;29;20062;-79
2023/07/09 02:37:49;;;;;;;4.63;3.08;;;17.60;99.90;;;;;;4935657;29;20050;-78
2023/07/09 02:40:16;;;;;;;5.70;3.97;;;17.60;99.90;;;;;;4913344;29;20035;-78
2023/07/09 02:42:42;;;;;;;6.03;3.05;;;17.50;99.90;;;;;;4935207;29;20030;-79
2023/07/09 02:45:09;;;;;;;4.90;3.40;;;17.40;99.90;;;;;;4934674;29;20363;-79
2023/07/09 02:47:35;;;;;;;8.95;3.88;;;17.40;99.90;;;;;;4935646;29;20039;-79
2023/07/09 02:50:05;;;;;;;7.55;4.05;;;17.30;99.90;;;;;;4915843;29;20455;-79
2023/07/09 02:52:31;;;;;;;6.55;2.95;;;17.30;99.90;;;;;;4933810;29;20040;-78
2023/07/09 02:54:57;;;;;;;6.50;2.88;;;17.30;99.90;;;;;;4936264;29;20052;-78
2023/07/09 02:57:24;;;;;;;7.30;3.88;;;17.30;99.90;;;;;;4931900;29;20036;-78
2023/07/09 02:59:50;;;;;;;8.65;3.83;;;17.20;99.90;;;;;;4935943;29;20031;-79
2023/07/09 03:02:19;;;;;;;8.68;4.80;;;17.10;99.90;;;;;;4932321;29;20052;-79
2023/07/09 03:04:45;;;;;;;6.63;3.90;;;17.00;99.90;;;;;;4914999;29;20058;-79
2023/07/09 03:07:11;;;;;;;7.82;4.10;;;17.00;99.90;;;;;;4935764;29;20497;-81
2023/07/09 03:09:46;;;;;;;5.40;3.47;;;17.00;99.90;;;;;;4935807;29;20044;-79
2023/07/09 03:12:13;;;;;;;7.47;3.13;;;17.10;99.90;;;;;;4933024;29;20039;-81
2023/07/09 03:14:39;;;;;;;5.50;4.25;;;17.20;99.90;;;;;;4935634;29;20036;-79
2023/07/09 03:17:05;;;;;;;5.70;3.55;;;17.20;99.90;;;;;;4935684;29;20047;-79
2023/07/09 03:19:31;;;;;;;8.50;3.60;;;17.30;99.90;;;;;;4933002;29;20656;-78
2023/07/09 03:21:57;;;;;;;5.15;3.60;;;17.30;99.90;;;;;;4934903;29;20038;-78
2023/07/09 03:24:23;;;;;;;6.07;3.10;;;17.40;99.90;;;;;;4934745;29;20039;-79
2023/07/09 03:26:49;;;;;;;9.65;4.28;;;17.40;99.90;;;;;;4935490;29;20031;-78
2023/07/09 03:29:16;;;;;;;4.97;3.05;;;17.30;99.90;;;;;;4934194;29;20055;-79
2023/07/09 03:31:42;;;;;;;11.43;4.22;;;17.30;99.90;;;;;;4913523;29;20042;-79
2023/07/09 03:34:08;;;;;;;4.93;3.53;;;17.30;99.90;;;;;;4935695;29;20383;-79
2023/07/09 03:36:37;;;;;;;6.47;3.67;;;17.30;99.90;;;;;;4934772;29;20043;-79
2023/07/09 03:39:03;;;;;;;7.80;3.85;;;17.30;99.90;;;;;;4935470;29;20025;-79
2023/07/09 03:41:30;;;;;;;4.90;2.80;;;17.20;99.90;;;;;;4933533;29;20033;-79
2023/07/09 03:43:56;;;;;;;5.85;3.45;;;17.10;99.90;;;;;;4937735;29;20383;-77
2023/07/09 03:46:22;;;;;;;6.13;3.33;;;17.10;99.90;;;;;;4936083;29;20044;-78
2023/07/09 03:48:50;;;;;;;4.45;3.40;;;17.20;99.90;;;;;;4935617;29;20036;-78
2023/07/09 03:51:17;;;;;;;8.20;4.57;;;17.10;99.90;;;;;;4932251;29;20042;-81
2023/07/09 03:53:43;;;;;;;6.60;3.22;;;17.00;99.90;;;;;;4934694;29;20044;-78
2023/07/09 03:56:09;;;;;;;5.93;3.60;;;17.00;99.90;;;;;;4935376;29;20048;-78
2023/07/09 03:58:35;;;;;;;5.43;3.20;;;17.10;99.90;;;;;;4934311;29;20043;-79
2023/07/09 04:01:02;;;;;;;7.13;3.75;;;17.10;99.90;;;;;;4935359;29;20446;-78
2023/07/09 04:03:28;;;;;;;5.78;3.15;;;17.20;99.90;;;;;;4932641;29;20027;-78
2023/07/09 04:05:54;;;;;;;4.53;3.03;;;17.20;99.90;;;;;;4935640;29;20032;-79
2023/07/09 04:08:20;;;;;;;3.65;2.67;;;17.30;99.90;;;;;;4933991;29;20372;-79
2023/07/09 04:10:46;;;;;;;5.35;2.97;;;17.40;99.90;;;;;;4935859;29;20368;-79
2023/07/09 04:13:12;;;;;;;4.95;3.50;;;17.40;99.90;;;;;;4932947;29;20027;-80
2023/07/09 04:15:38;;;;;;;4.70;3.58;;;17.40;99.90;;;;;;4933321;29;20548;-79
2023/07/09 04:18:05;;;;;;;4.40;3.33;;;17.30;99.90;;;;;;4933908;29;20035;-79
2023/07/09 04:20:31;;;;;;;7.40;3.47;;;17.40;99.90;;;;;;4933558;29;20040;-79
2023/07/09 04:22:57;;;;;;;4.50;3.78;;;17.40;99.90;;;;;;4932987;29;20039;-79
2023/07/09 04:25:23;;;;;;;5.93;3.20;;;17.60;99.90;;;;;;4933528;29;20043;-79
2023/07/09 04:27:50;;;;;;;7.80;3.53;;;17.80;99.90;;;;;;4934746;29;20031;-79
2023/07/09 04:30:16;;;;;;;5.18;3.55;;;18.30;99.90;;;;;;4933345;29;20039;-80
2023/07/09 04:32:43;;;;;;;6.28;3.95;;;18.50;99.90;;;;;;4932956;29;20455;-78
2023/07/09 04:35:11;;;;;;;6.72;3.03;;;18.90;99.90;;;;;;4933727;29;20505;-78
2023/07/09 04:37:38;;;;;;;10.45;3.85;;;19.30;73.00;;;;;;4933096;29;20031;-79
2023/07/09 04:40:06;;;;;;;7.53;3.38;;;19.80;19.00;;;;;;4933260;29;20091;-78
2023/07/09 04:42:33;;;;;;;6.88;3.35;;;20.30;1.00;;;;;;4926384;29;20379;-79
2023/07/09 04:44:59;;;;;;;4.47;3.08;;;20.70;1.00;;;;;;4934068;29;20058;-79
2023/07/09 04:47:25;;;;;;;5.00;3.05;;;21.10;1.00;;;;;;4933548;29;20390;-80
2023/07/09 04:49:51;;;;;;;6.45;3.22;;;21.30;1.00;;;;;;4933589;29;20046;-78
2023/07/09 04:52:17;;;;;;;5.25;2.72;;;21.20;1.00;;;;;;4931443;29;20367;-80
2023/07/09 04:54:44;;;;;;;6.65;3.35;;;21.10;1.00;;;;;;4932958;29;20040;-79
2023/07/09 04:57:11;;;;;;;5.95;2.92;;;20.90;1.00;;;;;;4932851;29;20355;-79
2023/07/09 04:59:38;;;;;;;7.78;3.25;;;20.80;1.00;;;;;;4931695;29;20042;-80
2023/07/09 05:02:05;;;;;;;8.13;3.47;;;20.80;1.00;;;;;;4931597;29;20031;-80
2023/07/09 05:04:31;;;;;;;4.82;3.00;;;21.10;1.00;;;;;;4932359;29;20040;-79
2023/07/09 05:06:57;;;;;;;5.25;3.22;;;21.40;1.00;;;;;;4933631;29;20363;-79
2023/07/09 05:09:24;;;;;;;9.95;4.35;;;21.90;1.00;;;;;;4932476;29;20030;-79
2023/07/09 05:11:51;;;;;;;5.10;3.70;;;22.00;1.00;;;;;;4931662;29;20024;-79
2023/07/09 05:14:18;;;;;;;5.90;3.38;;;22.10;1.00;;;;;;4932772;29;20395;-80
2023/07/09 05:16:45;;;;;;;7.93;3.65;;;22.20;1.00;;;;;;4932499;29;20058;-80
2023/07/09 05:19:11;;;;;;;8.45;4.60;;;22.20;1.00;;;;;;4932572;29;20035;-80
2023/07/09 05:21:38;;;;;;;6.40;3.08;;;22.60;1.00;;;;;;4930944;29;20062;-80
2023/07/09 05:24:04;;;;;;;6.10;3.35;;;23.10;1.00;;;;;;4932667;29;20036;-80
2023/07/09 05:26:31;;;;;;;5.53;3.25;;;23.10;1.00;;;;;;4932224;29;20040;-79
2023/07/09 05:28:57;;;;;;;5.03;3.60;;;23.00;1.00;;;;;;4932703;29;20023;-79
2023/07/09 05:31:23;;;;;;;4.50;2.65;;;22.90;1.00;;;;;;4931319;29;20127;-80
2023/07/09 05:33:49;;;;;;;5.28;2.90;;;23.00;1.00;;;;;;4932202;29;20050;-79
2023/07/09 05:36:15;;;;;;;6.82;4.28;;;23.30;1.00;;;;;;4932669;29;20031;-79
2023/07/09 05:38:43;;;;;;;5.75;3.15;;;23.60;1.00;;;;;;4931884;29;20455;-80
2023/07/09 05:41:09;;;;;;;5.35;2.85;;;23.70;1.00;;;;;;4932807;29;20036;-80
2023/07/09 05:43:35;;;;;;;7.40;3.58;;;24.20;1.00;;;;;;4930660;29;20044;-79
2023/07/09 05:46:04;;;;;;;6.43;3.80;;;24.80;99.90;;;;;;4932164;29;20039;-80
2023/07/09 05:48:31;;;;;;;15.67;3.90;;;25.10;99.90;;;;;;4927045;29;20031;-80
2023/07/09 05:50:57;;;;;;;7.18;3.95;;;24.90;99.90;;;;;;4933417;29;20278;-80
2023/07/09 05:53:23;;;;;;;6.97;3.95;;;25.20;99.90;;;;;;4930970;29;20044;-79
2023/07/09 05:55:54;;;;;;;7.90;3.50;;;25.20;99.90;;;;;;4933333;29;20382;-79
2023/07/09 05:58:20;;;;;;;11.70;4.15;;;25.40;99.90;;;;;;4932650;29;20036;-82
2023/07/09 06:00:52;;;;;;;5.30;3.40;;;25.90;99.90;;;;;;4932944;29;20027;-79
2023/07/09 06:03:18;;;;;;;6.32;3.50;;;26.00;99.90;;;;;;4930352;29;20148;-82
2023/07/09 06:05:44;;;;;;;8.55;4.47;;;26.10;99.90;;;;;;4932563;29;20046;-79
2023/07/09 06:08:12;;;;;;;6.13;4.22;;;26.10;99.90;;;;;;4932772;29;20452;-80
2023/07/09 06:10:41;;;;;;;6.80;4.78;;;26.00;99.90;;;;;;4932507;29;20035;-80
2023/07/09 06:13:08;;;;;;;7.93;4.38;;;25.50;99.90;;;;;;4931831;29;20028;-80
2023/07/09 06:15:34;;;;;;;10.90;6.03;;;25.10;99.90;;;;;;4932088;29;20043;-80
2023/07/09 06:18:00;;;;;;;9.77;6.88;;;24.90;99.90;;;;;;4933023;29;20035;-81
2023/07/09 06:20:26;;;;;;;9.43;6.75;;;24.60;99.90;;;;;;4932689;29;20039;-81
2023/07/09 06:22:52;;;;;;;10.05;6.55;;;24.90;99.90;;;;;;4931657;29;20028;-80
2023/07/09 06:25:18;;;;;;;9.73;7.18;;;25.20;99.90;;;;;;4932802;29;20048;-81
2023/07/09 06:27:44;;;;;;;10.85;6.63;;;25.60;99.90;;;;;;4934906;29;20051;-81
2023/07/09 06:30:11;;;;;;;7.88;6.78;;;26.30;99.90;;;;;;4936712;29;20083;-81
2023/07/09 06:32:37;;;;;;;11.95;6.22;;;27.10;99.90;;;;;;4934924;29;20031;-81
2023/07/09 06:35:04;;;;;;;12.73;6.80;;;28.00;99.90;;;;;;4936940;29;20050;-84
2023/07/09 06:37:30;;;;;;;9.77;6.15;;;28.30;99.90;;;;;;4935597;29;20473;-82
2023/07/09 06:39:56;;;;;;;8.43;5.50;;;28.70;99.90;;;;;;4936237;29;20467;-83
2023/07/09 06:42:22;;;;;;;9.88;5.55;;;29.00;99.90;;;;;;4929110;29;20035;-83
2023/07/09 06:45:09;;;;;;;11.60;5.68;;;29.30;99.90;;;;;;4928773;29;20387;-81
2023/07/09 06:47:35;;;;;;;7.25;5.03;;;28.80;99.90;;;;;;4935272;29;20032;-82
2023/07/09 06:50:01;;;;;;;7.60;5.28;;;28.40;99.90;;;;;;4934706;29;20043;-83
2023/07/09 06:52:27;;;;;;;6.82;4.88;;;28.20;99.90;;;;;;4933899;29;20054;-84
2023/07/09 06:54:54;;;;;;;8.98;5.18;;;27.70;99.90;;;;;;4934234;29;20458;-82
2023/07/09 06:57:20;;;;;;;6.93;4.45;;;28.50;99.90;;;;;;4935237;29;20027;-80
2023/07/09 06:59:46;;;;;;;6.05;4.60;;;28.20;99.90;;;;;;4934834;29;20019;-82
2023/07/09 07:02:12;;;;;;;8.63;4.28;;;29.00;99.90;;;;;;4934121;29;20400;-83
2023/07/09 07:04:38;;;;;;;6.50;4.45;;;29.80;99.90;;;;;;4934570;29;20028;-81
2023/07/09 07:07:04;;;;;;;8.82;4.75;;;29.40;99.90;;;;;;4933746;29;20455;-82
2023/07/09 07:09:30;;;;;;;8.88;4.90;;;29.70;99.90;;;;;;4927277;29;20052;-82
2023/07/09 07:11:56;;;;;;;6.55;4.07;;;30.30;99.90;;;;;;4933937;29;20031;-82
2023/07/09 07:14:23;;;;;;;6.57;4.40;;;30.70;99.90;;;;;;4933154;29;20415;-81
2023/07/09 07:16:50;;;;;;;5.57;4.05;;;30.20;99.90;;;;;;4914644;29;20043;-83
2023/07/09 07:19:16;;;;;;;8.63;4.68;;;30.90;99.90;;;;;;4935092;29;20339;-83
2023/07/09 07:21:42;;;;;;;6.68;4.50;;;30.70;99.90;;;;;;4932903;29;20032;-82
2023/07/09 07:24:08;;;;;;;4.78;3.13;;;30.80;99.20;;;;;;4933403;29;20034;-83
2023/07/09 07:26:34;;;;;;;5.90;3.80;;;31.10;78.90;;;;;;4932133;29;20086;-82
2023/07/09 07:29:01;;;;;;;5.35;3.45;;;30.90;92.00;;;;;;4928348;29;20103;-82
2023/07/09 07:31:27;;;;;;;7.82;4.00;;;30.90;77.00;;;;;;4930364;29;20058;-82
2023/07/09 07:33:53;;;;;;;8.40;4.30;;;31.10;87.30;;;;;;4928780;29;20027;-82
2023/07/09 07:36:20;;;;;;;8.88;3.35;;;31.40;81.60;;;;;;4934133;29;20078;-82
2023/07/09 07:38:46;;;;;;;6.50;3.83;;;31.10;81.60;;;;;;4933594;29;20126;-82
2023/07/09 07:41:12;;;;;;;7.80;3.95;;;30.10;91.60;;;;;;4934916;29;20031;-82
2023/07/09 07:43:38;;;;;;;7.38;3.22;;;29.80;99.90;;;;;;4933440;29;20028;-83
2023/07/09 07:46:06;;;;;;;8.50;3.42;;;30.30;98.10;;;;;;4934934;29;20031;-83
2023/07/09 07:48:32;;;;;;;9.93;3.70;;;31.00;90.50;;;;;;4934084;29;20039;-83
2023/07/09 07:51:03;;;;;;;5.70;3.38;;;31.80;79.20;;;;;;4935103;29;20035;-81
2023/07/09 07:53:30;;;;;;;8.38;3.67;;;31.90;78.00;;;;;;4930323;29;20382;-82
2023/07/09 07:56:02;;;;;;;8.05;3.50;;;31.20;78.40;;;;;;4932715;29;20044;-81
2023/07/09 07:58:29;;;;;;;7.57;3.70;;;31.40;66.90;;;;;;4932241;29;20028;-81
2023/07/09 08:00:56;;;;;;;5.82;3.92;;;31.40;57.00;;;;;;4934749;29;20032;-82
2023/07/09 08:03:23;;;;;;;5.50;3.40;;;31.30;57.20;;;;;;4932604;29;20044;-81
2023/07/09 08:05:50;;;;;;;5.03;3.28;;;31.30;56.20;;;;;;4934566;29;20032;-82
2023/07/09 08:08:17;;;;;;;7.43;3.63;;;31.60;58.50;;;;;;4933678;29;20034;-81
2023/07/09 08:10:43;;;;;;;6.22;4.05;;;31.90;51.10;;;;;;4934251;29;20039;-82
2023/07/09 08:13:09;;;;;;;6.32;3.30;;;32.20;41.80;;;;;;4933244;29;20031;-82
2023/07/09 08:15:35;;;;;;;6.53;4.00;;;31.40;56.30;;;;;;4933137;29;20056;-82
2023/07/09 08:18:01;;;;;;;6.93;3.28;;;31.20;55.70;;;;;;4933795;29;20040;-81
2023/07/09 08:20:28;;;;;;;6.03;3.47;;;31.00;56.80;;;;;;4933252;29;20038;-81
2023/07/09 08:22:54;;;;;;;4.63;2.70;;;30.90;59.40;;;;;;4933217;29;20051;-83
2023/07/09 08:25:20;;;;;;;7.35;3.75;;;31.10;66.60;;;;;;4934237;29;20059;-82
2023/07/09 08:27:46;;;;;;;6.25;4.22;;;31.80;68.00;;;;;;4937788;29;20036;-82
2023/07/09 08:30:12;;;;;;;5.70;3.95;;;33.00;37.70;;;;;;4937322;29;20387;-82
2023/07/09 08:32:38;;;;;;;5.95;4.05;;;32.90;31.60;;;;;;4930446;29;20028;-81
2023/07/09 08:35:05;;;;;;;6.13;3.80;;;33.20;28.70;;;;;;4936364;29;20036;-82
2023/07/09 08:37:31;;;;;;;6.07;3.45;;;33.60;22.10;;;;;;4942022;29;20031;-81
2023/07/09 08:39:57;;;;;;;8.43;4.05;;;33.60;17.10;;;;;;4936426;29;20040;-81
2023/07/09 08:42:32;;;;;;;5.28;3.83;;;32.80;25.40;;;;;;4932361;29;20047;-83
2023/07/09 08:45:43;;;;;;;5.53;3.17;;;32.70;34.40;;;;;;4933435;29;20024;-80
2023/07/09 08:48:18;;;;;;;6.68;4.13;;;32.00;35.20;;;;;;4932623;29;20032;-81
2023/07/09 08:50:50;;;;;;;4.60;3.22;;;32.10;46.30;;;;;;4930175;29;20391;-80
2023/07/09 08:53:21;;;;;;;4.90;3.83;;;32.60;30.80;;;;;;4931850;29;20402;-82
2023/07/09 08:55:51;;;;;;;10.93;4.30;;;33.20;26.80;;;;;;4933102;29;20466;-80
2023/07/09 08:58:26;;;;;;;6.20;3.92;;;33.90;12.40;;;;;;4932959;29;20043;-81
2023/07/09 09:00:59;;;;;;;5.18;3.42;;;34.30;15.80;;;;;;4931592;29;20035;-82
2023/07/09 09:04:06;;;;;;;5.88;3.97;;;34.40;10.50;;;;;;4929314;29;20043;-82
2023/07/09 09:06:35;;;;;;;5.32;3.97;;;34.40;2.20;;;;;;4915508;29;20047;-84
2023/07/09 09:09:17;;;;;;;5.53;3.67;;;35.30;2.30;;;;;;4932729;29;20045;-81
2023/07/09 09:12:08;;;;;;;5.32;3.20;;;34.80;1.00;;;;;;4931559;29;20028;-80
2023/07/09 09:14:38;;;;;;;4.75;3.78;;;33.60;13.00;;;;;;4932551;29;20362;-82
2023/07/09 09:17:12;;;;;;;6.03;3.65;;;33.10;6.20;;;;;;4932219;29;20462;-82
2023/07/09 09:19:46;;;;;;;7.15;4.03;;;33.00;15.50;;;;;;4931573;29;20027;-81
2023/07/09 09:22:18;;;;;;;5.45;3.42;;;33.50;18.80;;;;;;4932258;29;20363;-82
2023/07/09 09:24:59;;;;;;;5.93;3.55;;;34.10;4.90;;;;;;4932160;29;20074;-81
2023/07/09 09:27:25;;;;;;;6.20;3.60;;;34.80;1.00;;;;;;4932208;29;20034;-83
2023/07/09 09:29:51;;;;;;;4.63;3.40;;;36.00;1.00;;;;;;4932703;29;20479;-81
2023/07/09 09:32:27;;;;;;;5.50;3.30;;;36.40;1.00;;;;;;4930704;29;20051;-81
2023/07/09 09:34:55;;;;;;;6.93;3.83;;;35.40;1.00;;;;;;4931706;29;20039;-81
2023/07/09 09:37:26;;;;;;;5.82;4.00;;;35.50;1.00;;;;;;4932726;29;20036;-81
2023/07/09 09:39:52;;;;;;;8.80;3.88;;;35.80;1.00;;;;;;4921557;29;20622;-82
2023/07/09 09:42:19;;;;;;;4.15;3.08;;;36.50;1.00;;;;;;4929702;29;20383;-80
2023/07/09 09:44:46;;;;;;;6.43;4.03;;;36.90;1.00;;;;;;4931341;29;20031;-78
2023/07/09 09:47:13;;;;;;;4.20;3.30;;;35.60;1.00;;;;;;4932100;29;20453;-79
2023/07/09 09:49:43;;;;;;;5.35;3.72;;;34.20;1.00;;;;;;4931472;29;20059;-79
2023/07/09 09:52:18;;;;;;;5.00;3.20;;;34.40;1.00;;;;;;4931122;29;20020;-81
2023/07/09 09:54:54;;;;;;;4.38;2.83;;;35.80;1.00;;;;;;4930335;29;20623;-80
2023/07/09 09:57:23;;;;;;;7.63;3.72;;;36.10;1.00;;;;;;4930854;29;20363;-80
2023/07/09 09:59:50;;;;;;;6.22;3.60;;;36.20;1.00;;;;;;4928849;29;20040;-81
2023/07/09 10:02:24;;;;;;;5.53;3.17;;;37.40;1.00;;;;;;4930404;29;20024;-81
2023/07/09 10:04:52;;;;;;;7.75;3.30;;;38.00;1.00;;;;;;4933443;29;20031;-81
2023/07/09 10:07:27;;;;;;;4.18;2.95;;;37.90;1.00;;;;;;4934597;29;20027;-81
2023/07/09 10:09:54;;;;;;;6.07;3.08;;;37.40;1.00;;;;;;4935120;29;20046;-81
2023/07/09 10:12:52;;;;;;;4.90;2.83;;;37.10;1.00;;;;;;4932656;29;20044;-80
2023/07/09 10:15:43;;;;;;;4.28;2.47;;;36.40;1.00;;;;;;4926874;29;20047;-81
2023/07/09 10:18:43;;;;;;;6.25;2.75;;;36.00;1.00;;;;;;4919528;29;20028;-82
2023/07/09 10:21:15;;;;;;;4.40;2.45;;;35.30;1.00;;;;;;4920894;29;20043;-78
2023/07/09 10:24:20;;;;;;;6.65;2.97;;;34.70;1.00;;;;;;4928547;29;20035;-80
2023/07/09 10:26:53;;;;;;;5.63;3.20;;;36.10;1.00;;;;;;4934067;29;20056;-81
2023/07/09 10:29:37;;;;;;;5.15;2.92;;;37.00;1.00;;;;;;4933465;29;20035;-80
2023/07/09 10:32:24;;;;;;;4.18;2.78;;;37.40;1.00;;;;;;4933727;29;20498;-80
2023/07/09 10:35:18;;;;;;;4.30;2.78;;;36.50;1.00;;;;;;4930462;29;20034;-81
2023/07/09 10:37:47;;;;;;;5.03;2.38;;;35.40;1.00;;;;;;4934136;29;20058;-81
2023/07/09 10:40:17;;;;;;;4.22;2.80;;;35.50;1.00;;;;;;4934984;29;20487;-84
2023/07/09 10:42:50;;;;;;;5.82;2.40;;;35.20;1.00;;;;;;4933576;29;20046;-83
2023/07/09 10:45:23;;;;;;;4.57;2.40;;;35.40;1.00;;;;;;4934053;29;20035;-84
2023/07/09 10:48:02;;;;;;;3.58;2.33;;;35.70;1.00;;;;;;4931208;29;20038;-80
2023/07/09 10:50:33;;;;;;;7.32;2.72;;;35.70;1.00;;;;;;4932754;29;20035;-82
2023/07/09 10:53:29;;;;;;;4.27;2.83;;;35.80;1.00;;;;;;4896608;29;1067064;-79
2023/07/09 10:56:12;;;;;;;6.07;3.15;;;35.60;1.00;;;;;;4935875;29;20478;-81
2023/07/09 10:58:50;;;;;;;6.70;2.88;;;35.20;1.00;;;;;;4917251;29;20884;-83
2023/07/09 11:01:21;;;;;;;5.67;3.13;;;34.50;1.00;;;;;;4934849;29;20043;-80
2023/07/09 11:03:53;;;;;;;6.85;2.90;;;34.30;1.00;;;;;;4936127;29;20035;-81
2023/07/09 11:06:38;;;;;;;5.10;3.10;;;34.00;1.00;;;;;;4932132;29;20035;-81
2023/07/09 11:09:13;;;;;;;8.10;2.83;;;34.40;1.00;;;;;;4931230;29;20046;-81
2023/07/09 11:11:45;;;;;;;4.70;2.83;;;34.60;1.00;;;;;;4933144;29;20047;-81
2023/07/09 11:14:32;;;;;;;5.03;3.25;;;34.90;1.00;;;;;;4934795;29;20039;-81
2023/07/09 11:17:00;;;;;;;8.95;3.35;;;35.10;1.00;;;;;;4935708;29;20039;-82
2023/07/09 11:19:27;;;;;;;4.93;3.08;;;35.20;1.00;;;;;;4935041;29;20032;-81
2023/07/09 11:22:07;;;;;;;5.45;2.88;;;35.30;1.00;;;;;;4933388;29;20031;-80
2023/07/09 11:24:50;;;;;;;8.57;2.88;;;35.40;1.00;;;;;;4931012;29;20937;-81
2023/07/09 11:27:26;;;;;;;3.95;2.58;;;35.40;1.00;;;;;;4933023;29;20043;-81
2023/07/09 11:30:01;;;;;;;3.70;1.88;;;35.50;1.00;;;;;;4934723;29;20028;-81
2023/07/09 11:32:28;;;;;;;5.88;2.70;;;35.60;1.00;;;;;;4933781;29;20059;-80
2023/07/09 11:35:05;;;;;;;3.13;1.85;;;35.60;1.00;;;;;;4931326;29;20043;-82
2023/07/09 11:37:32;;;;;;;6.03;2.28;;;35.70;1.00;;;;;;4934409;29;20105;-82
2023/07/09 11:40:10;;;;;;;4.72;2.22;;;35.10;1.00;;;;;;4935515;29;20473;-81
2023/07/09 11:42:47;;;;;;;6.35;2.05;;;35.50;1.00;;;;;;4939586;29;20050;-80
2023/07/09 11:45:16;;;;;;;3.80;2.03;;;36.00;1.00;;;;;;4934511;29;20035;-81
2023/07/09 11:47:46;;;;;;;5.38;2.72;;;35.90;1.00;;;;;;4932577;29;20047;-81
2023/07/09 11:50:21;;;;;;;;;;;35.70;1.00;;;;;;4931893;29;20024;-81
2023/07/09 11:52:54;;;;;;;5.10;1.75;;;35.40;1.00;;;;;;4931439;29;20495;-81
2023/07/09 11:55:43;;;;;;;3.42;2.28;;;35.60;1.00;;;;;;4930393;29;20043;-81
2023/07/09 11:58:13;;;;;;;4.75;1.98;;;36.20;1.00;;;;;;4933447;29;20024;-80
2023/07/09 12:00:49;;;;;;;5.85;2.28;;;36.40;1.00;;;;;;4931988;29;20075;-80
2023/07/09 12:03:36;;;;;;;4.45;2.20;;;36.50;1.00;;;;;;4927619;29;20038;-81
2023/07/09 12:06:07;;;;;;;5.82;2.60;;;36.20;1.00;;;;;;4935552;29;20039;-81
2023/07/09 12:08:36;;;;;;;4.55;2.03;;;36.30;1.00;;;;;;4929979;29;20032;-82
2023/07/09 12:11:03;;;;;;;3.28;2.10;;;36.20;1.00;;;;;;4934830;29;20387;-78
2023/07/09 12:13:37;;;;;;;3.50;2.00;;;36.40;1.00;;;;;;4930009;29;20031;-81
2023/07/09 12:16:03;;;;;;;4.93;2.70;;;36.60;1.00;;;;;;4931980;29;20048;-83
2023/07/09 12:18:30;;;;;;;6.18;2.25;;;36.60;1.00;;;;;;4932689;29;20035;-80
2023/07/09 12:20:56;;;;;;;3.85;2.10;;;36.90;1.00;;;;;;4933623;29;20818;-80
2023/07/09 12:23:33;;;;;;;5.32;2.58;;;36.70;1.00;;;;;;4933561;29;20035;-81
2023/07/09 12:26:01;;;;;;;4.93;2.67;;;36.40;1.00;;;;;;4930691;29;20493;-81
2023/07/09 12:28:28;;;;;;;4.78;2.28;;;36.60;1.00;;;;;;4931913;29;20027;-82
2023/07/09 12:30:55;;;;;;;3.88;2.13;;;36.60;1.00;;;;;;4933285;29;20053;-82
2023/07/09 12:33:25;;;;;;;4.43;2.33;;;36.40;1.00;;;;;;4928165;29;20038;-81
2023/07/09 12:36:00;;;;;;;4.38;2.38;;;36.60;1.00;;;;;;4933072;29;20051;-81
2023/07/09 12:38:31;;;;;;;5.95;2.20;;;36.60;1.00;;;;;;4931533;29;20048;-82
2023/07/09 12:41:00;;;;;;;4.18;2.28;;;36.50;1.00;;;;;;4931771;29;20027;-81
2023/07/09 12:43:31;;;;;;;5.55;2.15;;;36.40;1.00;;;;;;4927430;29;20043;-80
2023/07/09 12:45:59;;;;;;;3.70;2.60;;;36.50;1.00;;;;;;4934149;29;20039;-80
2023/07/09 12:48:27;;;;;;;3.78;2.50;;;36.50;1.00;;;;;;4913387;29;20055;-82
2023/07/09 12:50:59;;;;;;;5.82;2.97;;;36.40;1.00;;;;;;4933956;29;20039;-81
2023/07/09 12:53:27;;;;;;;3.72;1.90;;;36.30;1.00;;;;;;4933656;29;20051;-81
2023/07/09 12:56:00;;;;;;;6.03;2.70;;;36.60;1.00;;;;;;4933612;29;20231;-80
2023/07/09 12:58:36;;;;;;;5.82;2.40;;;36.50;1.00;;;;;;4934281;29;20023;-81
2023/07/09 13:01:07;;;;;;;6.28;3.00;;;36.60;1.00;;;;;;4913513;29;20031;-80
2023/07/09 13:03:34;;;;;;;4.85;2.95;;;36.90;1.00;;;;;;4932050;29;20027;-84
2023/07/09 13:06:03;;;;;;;4.13;2.38;;;36.90;1.00;;;;;;4934501;29;20343;-82